sensor_id;sensor_type;location;lat;lon;timestamp;temperature;humidity
6110;DHT22;3085;49.444;11.054;2022-11-27T00:00:56;4.90;99.90
6110;DHT22;3085;49.444;11.054;2022-11-27T00:03:23;4.90;99.90
6110;DHT22;3085;49.444;11.054;2022-11-27T00:05:52;4.80;99.90
6110;DHT22;3085;49.444;11.054;2022-11-27T00:08:19;4.80;99.90
6110;DHT22;3085;49.444;11.054;2022-11-27T00:10:45;4.90;99.90
6110;DHT22;3085;49.444;11.054;2022-11-27T00:13:12;4.70;99.90
6110;DHT22;3085;49.444;11.054;2022-11-27T00:15:39;4.60;99.90
6110;DHT22;3085;49.444;11.054;2022-11-27T00:18:08;4.50;99.90
6110;DHT22;3085;49.444;11.054;2022-11-27T00:20:35;4.50;99.90
6110;DHT22;3085;49.444;11.054;2022-11-27T00:23:01;4.50;99.90
6110;DHT22;3085;49.444;11.054;2022-11-27T00:25:28;4.40;99.90
6110;DHT22;3085;49.444;11.054;2022-11-27T00:27:55;4.30;99.90
6110;DHT22;3085;49.444;11.054;2022-11-27T00:30:22;4.30;99.90
6110;DHT22;3085;49.444;11.054;2022-11-27T00:32:49;4.10;99.90
6110;DHT22;3085;49.444;11.054;2022-11-27T00:35:17;4.10;99.90
6110;DHT22;3085;49.444;11.054;2022-11-27T00:37:43;4.20;99.90
6110;DHT22;3085;49.444;11.054;2022-11-27T00:40:11;4.20;99.90
6110;DHT22;3085;49.444;11.054;2022-11-27T00:42:38;4.20;99.90
6110;DHT22;3085;49.444;11.054;2022-11-27T00:45:05;4.10;99.90
6110;DHT22;3085;49.444;11.054;2022-11-27T00:47:33;3.90;99.90
6110;DHT22;3085;49.444;11.054;2022-11-27T00:50:03;3.80;99.90
6110;DHT22;3085;49.444;11.054;2022-11-27T00:52:32;3.80;99.90
6110;DHT22;3085;49.444;11.054;2022-11-27T00:54:59;3.80;99.90
6110;DHT22;3085;49.444;11.054;2022-11-27T00:57:26;3.80;99.90
6110;DHT22;3085;49.444;11.054;2022-11-27T00:59:53;4.10;99.90
6110;DHT22;3085;49.444;11.054;2022-11-27T01:02:20;4.90;99.90
6110;DHT22;3085;49.444;11.054;2022-11-27T01:04:47;3.70;99.90
6110;DHT22;3085;49.444;11.054;2022-11-27T01:07:15;3.70;99.90
6110;DHT22;3085;49.444;11.054;2022-11-27T01:09:43;3.80;99.90
6110;DHT22;3085;49.444;11.054;2022-11-27T01:12:11;3.60;99.90
6110;DHT22;3085;49.444;11.054;2022-11-27T01:14:38;3.50;99.90
6110;DHT22;3085;49.444;11.054;2022-11-27T01:17:05;3.50;99.90
6110;DHT22;3085;49.444;11.054;2022-11-27T01:19:32;3.30;99.90
6110;DHT22;3085;49.444;11.054;2022-11-27T01:21:59;3.60;99.90
6110;DHT22;3085;49.444;11.054;2022-11-27T01:24:25;3.60;99.90
6110;DHT22;3085;49.444;11.054;2022-11-27T01:26:54;3.60;99.90
6110;DHT22;3085;49.444;11.054;2022-11-27T01:29:20;3.60;99.90
6110;DHT22;3085;49.444;11.054;2022-11-27T01:31:47;3.60;99.90
6110;DHT22;3085;49.444;11.054;2022-11-27T01:34:16;3.40;99.90
6110;DHT22;3085;49.444;11.054;2022-11-27T01:36:43;3.40;99.90
6110;DHT22;3085;49.444;11.054;2022-11-27T01:39:14;3.40;99.90
6110;DHT22;3085;49.444;11.054;2022-11-27T01:41:41;3.30;99.90
6110;DHT22;3085;49.444;11.054;2022-11-27T01:44:48;3.30;99.90
6110;DHT22;3085;49.444;11.054;2022-11-27T01:47:22;3.40;99.90
6110;DHT22;3085;49.444;11.054;2022-11-27T01:49:52;3.60;99.90
6110;DHT22;3085;49.444;11.054;2022-11-27T01:52:23;3.40;99.90
6110;DHT22;3085;49.444;11.054;2022-11-27T01:54:56;3.30;99.90
6110;DHT22;3085;49.444;11.054;2022-11-27T01:57:28;3.30;99.90
6110;DHT22;3085;49.444;11.054;2022-11-27T01:59:59;3.20;99.90
6110;DHT22;3085;49.444;11.054;2022-11-27T02:02:26;3.10;99.90
6110;DHT22;3085;49.444;11.054;2022-11-27T02:04:54;3.20;99.90
6110;DHT22;3085;49.444;11.054;2022-11-27T02:07:21;3.30;99.90
6110;DHT22;3085;49.444;11.054;2022-11-27T02:09:48;3.30;99.90
6110;DHT22;3085;49.444;11.054;2022-11-27T02:12:21;3.30;99.90
6110;DHT22;3085;49.444;11.054;2022-11-27T02:14:59;3.40;99.90
6110;DHT22;3085;49.444;11.054;2022-11-27T02:17:35;3.30;99.90
6110;DHT22;3085;49.444;11.054;2022-11-27T02:20:18;3.20;99.90
6110;DHT22;3085;49.444;11.054;2022-11-27T02:23:03;3.30;99.90
6110;DHT22;3085;49.444;11.054;2022-11-27T02:25:40;3.10;99.90
6110;DHT22;3085;49.444;11.054;2022-11-27T02:28:21;2.90;99.90
6110;DHT22;3085;49.444;11.054;2022-11-27T02:30:56;2.80;99.90
6110;DHT22;3085;49.444;11.054;2022-11-27T02:33:28;2.90;99.90
6110;DHT22;3085;49.444;11.054;2022-11-27T02:36:01;3.00;99.90
6110;DHT22;3085;49.444;11.054;2022-11-27T02:38:35;2.90;99.90
6110;DHT22;3085;49.444;11.054;2022-11-27T02:41:06;2.90;99.90
6110;DHT22;3085;49.444;11.054;2022-11-27T02:43:37;3.00;99.90
6110;DHT22;3085;49.444;11.054;2022-11-27T02:46:08;3.00;99.90
6110;DHT22;3085;49.444;11.054;2022-11-27T02:48:38;3.00;99.90
6110;DHT22;3085;49.444;11.054;2022-11-27T02:51:07;3.00;99.90
6110;DHT22;3085;49.444;11.054;2022-11-27T02:53:37;3.10;99.90
6110;DHT22;3085;49.444;11.054;2022-11-27T02:56:07;3.40;99.90
6110;DHT22;3085;49.444;11.054;2022-11-27T02:58:36;3.10;99.90
6110;DHT22;3085;49.444;11.054;2022-11-27T03:01:06;3.20;99.90
6110;DHT22;3085;49.444;11.054;2022-11-27T03:03:37;3.10;99.90
6110;DHT22;3085;49.444;11.054;2022-11-27T03:06:09;3.20;99.90
6110;DHT22;3085;49.444;11.054;2022-11-27T03:08:40;3.10;99.90
6110;DHT22;3085;49.444;11.054;2022-11-27T03:11:09;3.20;99.90
6110;DHT22;3085;49.444;11.054;2022-11-27T03:13:38;3.60;99.90
6110;DHT22;3085;49.444;11.054;2022-11-27T03:16:13;3.00;99.90
6110;DHT22;3085;49.444;11.054;2022-11-27T03:18:43;3.00;99.90
6110;DHT22;3085;49.444;11.054;2022-11-27T03:21:22;2.90;99.90
6110;DHT22;3085;49.444;11.054;2022-11-27T03:23:50;3.00;99.90
6110;DHT22;3085;49.444;11.054;2022-11-27T03:26:17;3.00;99.90
6110;DHT22;3085;49.444;11.054;2022-11-27T03:28:45;2.90;99.90
6110;DHT22;3085;49.444;11.054;2022-11-27T03:31:14;3.00;99.90
6110;DHT22;3085;49.444;11.054;2022-11-27T03:33:41;3.00;99.90
6110;DHT22;3085;49.444;11.054;2022-11-27T03:36:12;3.00;99.90
6110;DHT22;3085;49.444;11.054;2022-11-27T03:38:40;2.90;99.90
6110;DHT22;3085;49.444;11.054;2022-11-27T03:41:12;3.40;99.90
6110;DHT22;3085;49.444;11.054;2022-11-27T03:43:45;2.90;99.90
6110;DHT22;3085;49.444;11.054;2022-11-27T03:46:23;3.00;99.90
6110;DHT22;3085;49.444;11.054;2022-11-27T03:48:58;2.80;99.90
6110;DHT22;3085;49.444;11.054;2022-11-27T03:51:33;2.90;99.90
6110;DHT22;3085;49.444;11.054;2022-11-27T03:54:11;2.90;99.90
6110;DHT22;3085;49.444;11.054;2022-11-27T03:56:44;2.90;99.90
6110;DHT22;3085;49.444;11.054;2022-11-27T03:59:18;2.90;99.90
6110;DHT22;3085;49.444;11.054;2022-11-27T04:01:47;2.90;99.90
6110;DHT22;3085;49.444;11.054;2022-11-27T04:04:14;2.90;99.90
6110;DHT22;3085;49.444;11.054;2022-11-27T04:06:41;2.90;99.90
6110;DHT22;3085;49.444;11.054;2022-11-27T04:09:08;2.80;99.90
6110;DHT22;3085;49.444;11.054;2022-11-27T04:11:35;2.90;99.90
6110;DHT22;3085;49.444;11.054;2022-11-27T04:14:02;2.90;99.90
6110;DHT22;3085;49.444;11.054;2022-11-27T04:16:29;2.80;99.90
6110;DHT22;3085;49.444;11.054;2022-11-27T04:18:57;2.80;99.90
6110;DHT22;3085;49.444;11.054;2022-11-27T04:21:24;2.80;99.90
6110;DHT22;3085;49.444;11.054;2022-11-27T04:23:51;3.00;99.90
6110;DHT22;3085;49.444;11.054;2022-11-27T04:26:17;2.80;99.90
6110;DHT22;3085;49.444;11.054;2022-11-27T04:28:44;2.80;99.90
6110;DHT22;3085;49.444;11.054;2022-11-27T04:31:11;2.80;99.90
6110;DHT22;3085;49.444;11.054;2022-11-27T04:33:38;2.80;99.90
6110;DHT22;3085;49.444;11.054;2022-11-27T04:36:07;2.80;99.90
6110;DHT22;3085;49.444;11.054;2022-11-27T04:38:33;2.80;99.90
6110;DHT22;3085;49.444;11.054;2022-11-27T04:41:00;2.70;99.90
6110;DHT22;3085;49.444;11.054;2022-11-27T04:43:27;2.80;99.90
6110;DHT22;3085;49.444;11.054;2022-11-27T04:45:54;3.20;99.90
6110;DHT22;3085;49.444;11.054;2022-11-27T04:48:21;2.80;99.90
6110;DHT22;3085;49.444;11.054;2022-11-27T04:50:48;2.70;99.90
6110;DHT22;3085;49.444;11.054;2022-11-27T04:53:16;2.70;99.90
6110;DHT22;3085;49.444;11.054;2022-11-27T04:55:42;2.60;99.90
6110;DHT22;3085;49.444;11.054;2022-11-27T04:58:09;2.70;99.90
6110;DHT22;3085;49.444;11.054;2022-11-27T05:00:36;3.30;99.90
6110;DHT22;3085;49.444;11.054;2022-11-27T05:03:03;2.70;99.90
6110;DHT22;3085;49.444;11.054;2022-11-27T05:05:30;2.70;99.90
6110;DHT22;3085;49.444;11.054;2022-11-27T05:10:29;2.30;99.90
6110;DHT22;3085;49.444;11.054;2022-11-27T05:12:56;2.40;99.90
6110;DHT22;3085;49.444;11.054;2022-11-27T05:15:23;2.50;99.90
6110;DHT22;3085;49.444;11.054;2022-11-27T05:17:49;2.40;99.90
6110;DHT22;3085;49.444;11.054;2022-11-27T05:20:16;2.30;99.90
6110;DHT22;3085;49.444;11.054;2022-11-27T05:22:43;2.30;99.90
6110;DHT22;3085;49.444;11.054;2022-11-27T05:25:10;2.30;99.90
6110;DHT22;3085;49.444;11.054;2022-11-27T05:27:39;2.40;99.90
6110;DHT22;3085;49.444;11.054;2022-11-27T05:30:07;2.40;99.90
6110;DHT22;3085;49.444;11.054;2022-11-27T05:32:34;2.40;99.90
6110;DHT22;3085;49.444;11.054;2022-11-27T05:35:00;2.90;99.90
6110;DHT22;3085;49.444;11.054;2022-11-27T05:37:27;2.30;99.90
6110;DHT22;3085;49.444;11.054;2022-11-27T05:39:54;2.50;99.90
6110;DHT22;3085;49.444;11.054;2022-11-27T05:42:21;2.40;99.90
6110;DHT22;3085;49.444;11.054;2022-11-27T05:44:49;2.40;99.90
6110;DHT22;3085;49.444;11.054;2022-11-27T05:47:16;2.40;99.90
6110;DHT22;3085;49.444;11.054;2022-11-27T05:49:43;2.40;99.90
6110;DHT22;3085;49.444;11.054;2022-11-27T05:52:09;1.70;99.90
6110;DHT22;3085;49.444;11.054;2022-11-27T05:54:36;2.50;99.90
6110;DHT22;3085;49.444;11.054;2022-11-27T05:57:03;2.50;99.90
6110;DHT22;3085;49.444;11.054;2022-11-27T05:59:30;2.50;99.90
6110;DHT22;3085;49.444;11.054;2022-11-27T06:01:58;2.50;99.90
6110;DHT22;3085;49.444;11.054;2022-11-27T06:04:25;2.40;99.90
6110;DHT22;3085;49.444;11.054;2022-11-27T06:06:52;2.30;99.90
6110;DHT22;3085;49.444;11.054;2022-11-27T06:09:19;2.10;99.90
6110;DHT22;3085;49.444;11.054;2022-11-27T06:11:46;2.90;99.90
6110;DHT22;3085;49.444;11.054;2022-11-27T06:14:13;2.20;99.90
6110;DHT22;3085;49.444;11.054;2022-11-27T06:16:40;2.30;99.90
6110;DHT22;3085;49.444;11.054;2022-11-27T06:19:08;2.20;99.90
6110;DHT22;3085;49.444;11.054;2022-11-27T06:21:35;2.20;99.90
6110;DHT22;3085;49.444;11.054;2022-11-27T06:24:03;2.90;99.90
6110;DHT22;3085;49.444;11.054;2022-11-27T06:26:31;2.10;99.90
6110;DHT22;3085;49.444;11.054;2022-11-27T06:28:59;2.00;99.90
6110;DHT22;3085;49.444;11.054;2022-11-27T06:31:28;1.90;99.90
6110;DHT22;3085;49.444;11.054;2022-11-27T06:33:56;1.90;99.90
6110;DHT22;3085;49.444;11.054;2022-11-27T06:36:27;2.10;99.90
6110;DHT22;3085;49.444;11.054;2022-11-27T06:38:54;2.00;99.90
6110;DHT22;3085;49.444;11.054;2022-11-27T06:41:22;2.00;99.90
6110;DHT22;3085;49.444;11.054;2022-11-27T06:43:51;1.90;99.90
6110;DHT22;3085;49.444;11.054;2022-11-27T06:46:19;1.90;99.90
6110;DHT22;3085;49.444;11.054;2022-11-27T06:48:48;1.90;99.90
6110;DHT22;3085;49.444;11.054;2022-11-27T06:51:19;1.70;99.90
6110;DHT22;3085;49.444;11.054;2022-11-27T06:53:47;2.00;99.90
6110;DHT22;3085;49.444;11.054;2022-11-27T06:56:16;1.90;99.90
6110;DHT22;3085;49.444;11.054;2022-11-27T06:58:43;1.80;99.90
6110;DHT22;3085;49.444;11.054;2022-11-27T07:01:12;2.00;99.90
6110;DHT22;3085;49.444;11.054;2022-11-27T07:03:40;2.00;99.90
6110;DHT22;3085;49.444;11.054;2022-11-27T07:06:10;2.00;99.90
6110;DHT22;3085;49.444;11.054;2022-11-27T07:08:40;2.10;99.90
6110;DHT22;3085;49.444;11.054;2022-11-27T07:11:11;2.10;99.90
6110;DHT22;3085;49.444;11.054;2022-11-27T07:13:39;2.00;99.90
6110;DHT22;3085;49.444;11.054;2022-11-27T07:16:08;2.10;99.90
6110;DHT22;3085;49.444;11.054;2022-11-27T07:18:36;2.10;99.90
6110;DHT22;3085;49.444;11.054;2022-11-27T07:21:04;2.20;99.90
6110;DHT22;3085;49.444;11.054;2022-11-27T07:23:31;2.20;99.90
6110;DHT22;3085;49.444;11.054;2022-11-27T07:26:03;2.10;99.90
6110;DHT22;3085;49.444;11.054;2022-11-27T07:28:31;2.30;99.90
6110;DHT22;3085;49.444;11.054;2022-11-27T07:30:58;2.20;99.90
6110;DHT22;3085;49.444;11.054;2022-11-27T07:33:29;3.00;99.90
6110;DHT22;3085;49.444;11.054;2022-11-27T07:35:59;2.30;99.90
6110;DHT22;3085;49.444;11.054;2022-11-27T07:38:27;2.40;99.90
6110;DHT22;3085;49.444;11.054;2022-11-27T07:40:53;2.40;99.90
6110;DHT22;3085;49.444;11.054;2022-11-27T07:43:20;2.50;99.90
6110;DHT22;3085;49.444;11.054;2022-11-27T07:45:48;2.60;99.90
6110;DHT22;3085;49.444;11.054;2022-11-27T07:48:15;2.70;99.90
6110;DHT22;3085;49.444;11.054;2022-11-27T07:50:42;2.60;99.90
6110;DHT22;3085;49.444;11.054;2022-11-27T07:53:09;2.60;99.90
6110;DHT22;3085;49.444;11.054;2022-11-27T07:55:37;2.60;99.90
6110;DHT22;3085;49.444;11.054;2022-11-27T07:58:04;2.60;99.90
6110;DHT22;3085;49.444;11.054;2022-11-27T08:00:31;2.70;99.90
6110;DHT22;3085;49.444;11.054;2022-11-27T08:03:00;2.70;99.90
6110;DHT22;3085;49.444;11.054;2022-11-27T08:05:27;2.80;99.90
6110;DHT22;3085;49.444;11.054;2022-11-27T08:07:54;2.80;99.90
6110;DHT22;3085;49.444;11.054;2022-11-27T08:10:21;2.70;99.90
6110;DHT22;3085;49.444;11.054;2022-11-27T08:12:48;3.70;99.90
6110;DHT22;3085;49.444;11.054;2022-11-27T08:15:15;2.80;99.90
6110;DHT22;3085;49.444;11.054;2022-11-27T08:17:42;2.80;99.90
6110;DHT22;3085;49.444;11.054;2022-11-27T08:20:11;2.90;99.90
6110;DHT22;3085;49.444;11.054;2022-11-27T08:22:38;2.90;99.90
6110;DHT22;3085;49.444;11.054;2022-11-27T08:25:05;2.80;99.90
6110;DHT22;3085;49.444;11.054;2022-11-27T08:27:32;2.90;99.90
6110;DHT22;3085;49.444;11.054;2022-11-27T08:30:01;2.90;99.90
6110;DHT22;3085;49.444;11.054;2022-11-27T08:32:27;2.80;99.90
6110;DHT22;3085;49.444;11.054;2022-11-27T08:34:54;2.70;99.90
6110;DHT22;3085;49.444;11.054;2022-11-27T08:37:22;2.80;99.90
6110;DHT22;3085;49.444;11.054;2022-11-27T08:39:49;3.40;99.90
6110;DHT22;3085;49.444;11.054;2022-11-27T08:42:16;3.10;99.90
6110;DHT22;3085;49.444;11.054;2022-11-27T08:44:43;2.10;99.90
6110;DHT22;3085;49.444;11.054;2022-11-27T08:47:10;2.90;99.90
6110;DHT22;3085;49.444;11.054;2022-11-27T08:49:40;2.90;99.90
6110;DHT22;3085;49.444;11.054;2022-11-27T08:52:06;2.80;99.90
6110;DHT22;3085;49.444;11.054;2022-11-27T08:54:35;2.90;99.90
6110;DHT22;3085;49.444;11.054;2022-11-27T08:57:02;2.90;99.90
6110;DHT22;3085;49.444;11.054;2022-11-27T08:59:29;3.10;99.90
6110;DHT22;3085;49.444;11.054;2022-11-27T09:01:56;3.10;99.90
6110;DHT22;3085;49.444;11.054;2022-11-27T09:04:23;3.40;99.90
6110;DHT22;3085;49.444;11.054;2022-11-27T09:06:50;3.60;99.90
6110;DHT22;3085;49.444;11.054;2022-11-27T09:09:17;3.70;99.90
6110;DHT22;3085;49.444;11.054;2022-11-27T09:11:45;3.60;99.90
6110;DHT22;3085;49.444;11.054;2022-11-27T09:14:12;3.50;99.90
6110;DHT22;3085;49.444;11.054;2022-11-27T09:16:39;2.90;99.90
6110;DHT22;3085;49.444;11.054;2022-11-27T09:19:06;3.20;99.90
6110;DHT22;3085;49.444;11.054;2022-11-27T09:21:33;3.20;99.90
6110;DHT22;3085;49.444;11.054;2022-11-27T09:24:01;3.20;99.90
6110;DHT22;3085;49.444;11.054;2022-11-27T09:26:28;3.10;99.90
6110;DHT22;3085;49.444;11.054;2022-11-27T09:28:57;3.20;99.90
6110;DHT22;3085;49.444;11.054;2022-11-27T09:31:24;3.70;99.90
6110;DHT22;3085;49.444;11.054;2022-11-27T09:33:51;3.40;99.90
6110;DHT22;3085;49.444;11.054;2022-11-27T09:36:20;3.40;99.90
6110;DHT22;3085;49.444;11.054;2022-11-27T09:38:47;3.30;99.90
6110;DHT22;3085;49.444;11.054;2022-11-27T09:41:38;3.20;99.90
6110;DHT22;3085;49.444;11.054;2022-11-27T09:44:20;3.10;99.90
6110;DHT22;3085;49.444;11.054;2022-11-27T09:46:48;3.00;99.90
6110;DHT22;3085;49.444;11.054;2022-11-27T09:49:19;3.10;99.90
6110;DHT22;3085;49.444;11.054;2022-11-27T09:51:50;3.20;99.90
6110;DHT22;3085;49.444;11.054;2022-11-27T09:54:23;3.30;99.90
6110;DHT22;3085;49.444;11.054;2022-11-27T09:56:53;3.60;99.90
6110;DHT22;3085;49.444;11.054;2022-11-27T09:59:26;3.40;99.90
6110;DHT22;3085;49.444;11.054;2022-11-27T10:01:55;3.50;99.90
6110;DHT22;3085;49.444;11.054;2022-11-27T10:04:24;3.50;99.90
6110;DHT22;3085;49.444;11.054;2022-11-27T10:07:07;3.60;99.90
6110;DHT22;3085;49.444;11.054;2022-11-27T10:09:47;3.50;99.90
6110;DHT22;3085;49.444;11.054;2022-11-27T10:12:24;3.40;99.90
6110;DHT22;3085;49.444;11.054;2022-11-27T10:15:02;3.50;99.90
6110;DHT22;3085;49.444;11.054;2022-11-27T10:17:34;3.60;99.90
6110;DHT22;3085;49.444;11.054;2022-11-27T10:20:12;3.70;99.90
6110;DHT22;3085;49.444;11.054;2022-11-27T10:22:48;3.60;99.90
6110;DHT22;3085;49.444;11.054;2022-11-27T10:25:18;3.50;99.90
6110;DHT22;3085;49.444;11.054;2022-11-27T10:27:55;3.70;99.90
6110;DHT22;3085;49.444;11.054;2022-11-27T10:30:26;3.70;99.90
6110;DHT22;3085;49.444;11.054;2022-11-27T10:32:55;4.00;99.90
6110;DHT22;3085;49.444;11.054;2022-11-27T10:35:25;3.90;99.90
6110;DHT22;3085;49.444;11.054;2022-11-27T10:37:54;3.80;99.90
6110;DHT22;3085;49.444;11.054;2022-11-27T10:40:24;3.90;99.90
6110;DHT22;3085;49.444;11.054;2022-11-27T10:42:58;3.80;99.90
6110;DHT22;3085;49.444;11.054;2022-11-27T10:45:38;3.90;99.90
6110;DHT22;3085;49.444;11.054;2022-11-27T10:48:08;3.90;99.90
6110;DHT22;3085;49.444;11.054;2022-11-27T10:50:36;3.80;99.90
6110;DHT22;3085;49.444;11.054;2022-11-27T10:53:05;3.80;99.90
6110;DHT22;3085;49.444;11.054;2022-11-27T10:55:48;3.80;99.90
6110;DHT22;3085;49.444;11.054;2022-11-27T10:58:24;4.00;99.90
6110;DHT22;3085;49.444;11.054;2022-11-27T11:01:01;4.10;99.90
6110;DHT22;3085;49.444;11.054;2022-11-27T11:03:28;4.20;99.90
6110;DHT22;3085;49.444;11.054;2022-11-27T11:05:57;4.20;99.90
6110;DHT22;3085;49.444;11.054;2022-11-27T11:08:25;4.20;99.90
6110;DHT22;3085;49.444;11.054;2022-11-27T11:10:57;4.20;99.90
6110;DHT22;3085;49.444;11.054;2022-11-27T11:13:25;4.20;99.90
6110;DHT22;3085;49.444;11.054;2022-11-27T11:15:56;4.30;99.90
6110;DHT22;3085;49.444;11.054;2022-11-27T11:18:26;4.10;99.90
6110;DHT22;3085;49.444;11.054;2022-11-27T11:20:55;4.10;99.90
6110;DHT22;3085;49.444;11.054;2022-11-27T11:23:26;4.30;99.90
6110;DHT22;3085;49.444;11.054;2022-11-27T11:25:58;4.20;99.90
6110;DHT22;3085;49.444;11.054;2022-11-27T11:28:26;4.30;99.90
6110;DHT22;3085;49.444;11.054;2022-11-27T11:31:04;4.30;99.90
6110;DHT22;3085;49.444;11.054;2022-11-27T11:33:40;4.30;99.90
6110;DHT22;3085;49.444;11.054;2022-11-27T11:36:13;4.20;99.90
6110;DHT22;3085;49.444;11.054;2022-11-27T11:38:43;4.20;99.90
6110;DHT22;3085;49.444;11.054;2022-11-27T11:41:11;4.20;99.90
6110;DHT22;3085;49.444;11.054;2022-11-27T11:43:41;4.40;99.90
6110;DHT22;3085;49.444;11.054;2022-11-27T11:46:19;4.40;99.90
6110;DHT22;3085;49.444;11.054;2022-11-27T11:49:00;4.60;99.90
6110;DHT22;3085;49.444;11.054;2022-11-27T11:51:58;4.40;99.90
6110;DHT22;3085;49.444;11.054;2022-11-27T11:54:38;4.40;99.90
6110;DHT22;3085;49.444;11.054;2022-11-27T11:57:27;5.30;99.90
6110;DHT22;3085;49.444;11.054;2022-11-27T12:00:00;4.30;99.90
6110;DHT22;3085;49.444;11.054;2022-11-27T12:02:43;4.40;99.90
6110;DHT22;3085;49.444;11.054;2022-11-27T12:05:23;4.40;99.90
6110;DHT22;3085;49.444;11.054;2022-11-27T12:08:09;4.50;99.90
6110;DHT22;3085;49.444;11.054;2022-11-27T12:10:49;4.60;99.90
6110;DHT22;3085;49.444;11.054;2022-11-27T12:13:29;5.80;99.90
6110;DHT22;3085;49.444;11.054;2022-11-27T12:16:00;4.70;99.90
6110;DHT22;3085;49.444;11.054;2022-11-27T12:18:40;4.70;99.90
6110;DHT22;3085;49.444;11.054;2022-11-27T12:21:15;4.60;99.90
6110;DHT22;3085;49.444;11.054;2022-11-27T12:24:00;4.60;99.90
6110;DHT22;3085;49.444;11.054;2022-11-27T12:26:38;4.60;99.90
6110;DHT22;3085;49.444;11.054;2022-11-27T12:32:38;4.50;99.90
6110;DHT22;3085;49.444;11.054;2022-11-27T12:35:29;4.60;99.90
6110;DHT22;3085;49.444;11.054;2022-11-27T12:40:57;4.70;99.90
6110;DHT22;3085;49.444;11.054;2022-11-27T12:43:26;4.70;99.90
6110;DHT22;3085;49.444;11.054;2022-11-27T12:45:57;4.70;99.90
6110;DHT22;3085;49.444;11.054;2022-11-27T12:48:30;4.70;99.90
6110;DHT22;3085;49.444;11.054;2022-11-27T12:51:02;4.70;99.90
6110;DHT22;3085;49.444;11.054;2022-11-27T12:53:35;4.80;99.90
6110;DHT22;3085;49.444;11.054;2022-11-27T12:56:11;4.80;99.90
6110;DHT22;3085;49.444;11.054;2022-11-27T12:58:43;4.70;99.90
6110;DHT22;3085;49.444;11.054;2022-11-27T13:01:14;4.80;99.90
6110;DHT22;3085;49.444;11.054;2022-11-27T13:03:47;4.70;99.90
6110;DHT22;3085;49.444;11.054;2022-11-27T13:06:23;4.80;99.90
6110;DHT22;3085;49.444;11.054;2022-11-27T13:08:57;4.80;99.90
6110;DHT22;3085;49.444;11.054;2022-11-27T13:11:29;4.90;99.90
6110;DHT22;3085;49.444;11.054;2022-11-27T13:14:02;4.80;99.90
6110;DHT22;3085;49.444;11.054;2022-11-27T13:16:34;4.90;99.90
6110;DHT22;3085;49.444;11.054;2022-11-27T13:19:08;4.90;99.90
6110;DHT22;3085;49.444;11.054;2022-11-27T13:21:38;4.80;99.90
6110;DHT22;3085;49.444;11.054;2022-11-27T13:24:10;4.80;99.90
6110;DHT22;3085;49.444;11.054;2022-11-27T13:26:42;4.90;99.90
6110;DHT22;3085;49.444;11.054;2022-11-27T13:29:18;4.90;99.90
6110;DHT22;3085;49.444;11.054;2022-11-27T13:31:52;4.90;99.90
6110;DHT22;3085;49.444;11.054;2022-11-27T13:34:23;4.90;99.90
6110;DHT22;3085;49.444;11.054;2022-11-27T13:36:57;4.90;99.90
6110;DHT22;3085;49.444;11.054;2022-11-27T13:39:28;5.00;99.90
6110;DHT22;3085;49.444;11.054;2022-11-27T13:42:02;5.00;99.90
6110;DHT22;3085;49.444;11.054;2022-11-27T13:44:31;5.00;99.90
6110;DHT22;3085;49.444;11.054;2022-11-27T13:47:05;5.00;99.90
6110;DHT22;3085;49.444;11.054;2022-11-27T13:49:35;5.10;99.90
6110;DHT22;3085;49.444;11.054;2022-11-27T13:52:08;5.10;99.90
6110;DHT22;3085;49.444;11.054;2022-11-27T13:54:37;5.10;99.90
6110;DHT22;3085;49.444;11.054;2022-11-27T13:57:12;5.10;99.90
6110;DHT22;3085;49.444;11.054;2022-11-27T13:59:40;5.20;99.90
6110;DHT22;3085;49.444;11.054;2022-11-27T14:02:07;5.10;99.90
6110;DHT22;3085;49.444;11.054;2022-11-27T14:04:47;5.10;99.90
6110;DHT22;3085;49.444;11.054;2022-11-27T14:07:14;5.10;99.90
6110;DHT22;3085;49.444;11.054;2022-11-27T14:09:45;5.10;99.90
6110;DHT22;3085;49.444;11.054;2022-11-27T14:12:16;5.10;99.90
6110;DHT22;3085;49.444;11.054;2022-11-27T14:14:44;5.20;99.90
6110;DHT22;3085;49.444;11.054;2022-11-27T14:17:25;5.10;99.90
6110;DHT22;3085;49.444;11.054;2022-11-27T14:20:04;5.10;99.90
6110;DHT22;3085;49.444;11.054;2022-11-27T14:22:43;5.10;99.90
6110;DHT22;3085;49.444;11.054;2022-11-27T14:25:22;5.10;99.90
6110;DHT22;3085;49.444;11.054;2022-11-27T14:27:57;5.00;99.90
6110;DHT22;3085;49.444;11.054;2022-11-27T14:30:30;5.00;99.90
6110;DHT22;3085;49.444;11.054;2022-11-27T14:32:57;5.00;99.90
6110;DHT22;3085;49.444;11.054;2022-11-27T14:35:26;4.90;99.90
6110;DHT22;3085;49.444;11.054;2022-11-27T14:37:52;4.90;99.90
6110;DHT22;3085;49.444;11.054;2022-11-27T14:40:24;5.00;99.90
6110;DHT22;3085;49.444;11.054;2022-11-27T14:42:52;5.00;99.90
6110;DHT22;3085;49.444;11.054;2022-11-27T14:45:20;5.00;99.90
6110;DHT22;3085;49.444;11.054;2022-11-27T14:47:50;5.00;99.90
6110;DHT22;3085;49.444;11.054;2022-11-27T14:50:17;5.00;99.90
6110;DHT22;3085;49.444;11.054;2022-11-27T14:52:49;4.90;99.90
6110;DHT22;3085;49.444;11.054;2022-11-27T14:55:18;5.00;99.90
6110;DHT22;3085;49.444;11.054;2022-11-27T14:57:48;5.00;99.90
6110;DHT22;3085;49.444;11.054;2022-11-27T15:00:18;4.90;99.90
6110;DHT22;3085;49.444;11.054;2022-11-27T15:02:46;5.00;99.90
6110;DHT22;3085;49.444;11.054;2022-11-27T15:05:17;5.00;99.90
6110;DHT22;3085;49.444;11.054;2022-11-27T15:07:44;5.00;99.90
6110;DHT22;3085;49.444;11.054;2022-11-27T15:10:31;5.00;99.90
6110;DHT22;3085;49.444;11.054;2022-11-27T15:13:00;4.90;99.90
6110;DHT22;3085;49.444;11.054;2022-11-27T15:15:28;4.80;99.90
6110;DHT22;3085;49.444;11.054;2022-11-27T15:18:00;4.90;99.90
6110;DHT22;3085;49.444;11.054;2022-11-27T15:20:34;4.90;99.90
6110;DHT22;3085;49.444;11.054;2022-11-27T15:23:03;4.90;99.90
6110;DHT22;3085;49.444;11.054;2022-11-27T15:25:35;4.80;99.90
6110;DHT22;3085;49.444;11.054;2022-11-27T15:28:24;4.80;99.90
6110;DHT22;3085;49.444;11.054;2022-11-27T15:30:52;4.80;99.90
6110;DHT22;3085;49.444;11.054;2022-11-27T15:33:24;4.90;99.90
6110;DHT22;3085;49.444;11.054;2022-11-27T15:35:53;4.90;99.90
6110;DHT22;3085;49.444;11.054;2022-11-27T15:38:20;5.00;99.90
6110;DHT22;3085;49.444;11.054;2022-11-27T15:40:56;5.00;99.90
6110;DHT22;3085;49.444;11.054;2022-11-27T15:43:25;4.90;99.90
6110;DHT22;3085;49.444;11.054;2022-11-27T15:45:51;4.80;99.90
6110;DHT22;3085;49.444;11.054;2022-11-27T15:48:20;4.80;99.90
6110;DHT22;3085;49.444;11.054;2022-11-27T15:50:47;4.80;99.90
6110;DHT22;3085;49.444;11.054;2022-11-27T15:53:14;4.90;99.90
6110;DHT22;3085;49.444;11.054;2022-11-27T15:55:41;4.90;99.90
6110;DHT22;3085;49.444;11.054;2022-11-27T15:58:08;4.80;99.90
6110;DHT22;3085;49.444;11.054;2022-11-27T16:00:36;4.80;99.90
6110;DHT22;3085;49.444;11.054;2022-11-27T16:03:04;4.80;99.90
6110;DHT22;3085;49.444;11.054;2022-11-27T16:05:30;4.80;99.90
6110;DHT22;3085;49.444;11.054;2022-11-27T16:07:57;4.70;99.90
6110;DHT22;3085;49.444;11.054;2022-11-27T16:10:24;4.70;99.90
6110;DHT22;3085;49.444;11.054;2022-11-27T16:12:51;4.70;99.90
6110;DHT22;3085;49.444;11.054;2022-11-27T16:15:19;4.70;99.90
6110;DHT22;3085;49.444;11.054;2022-11-27T16:17:47;4.70;99.90
6110;DHT22;3085;49.444;11.054;2022-11-27T16:20:14;4.70;99.90
6110;DHT22;3085;49.444;11.054;2022-11-27T16:22:41;4.70;99.90
6110;DHT22;3085;49.444;11.054;2022-11-27T16:25:08;4.70;99.90
6110;DHT22;3085;49.444;11.054;2022-11-27T16:27:35;4.70;99.90
6110;DHT22;3085;49.444;11.054;2022-11-27T16:30:02;4.70;99.90